Time;durP1;ratioP1;P1;durP2;ratioP2;P2;SDS_P1;SDS_P2;PMS_P1;PMS_P2;Temp;Humidity;BMP_temperature;BMP_pressure;BME280_temperature;BME280_humidity;BME280_pressure;Samples;Min_cycle;Max_cycle;Signal;HPM_P1;HPM_P2
2021/10/19 00:01:36;;;;;;;1041.22;932.10;;;;;;;;;;5070592;28;20024;-76
2021/10/19 00:04:02;;;;;;;1048.15;938.63;;;;;;;;;;5070534;28;20109;-76
2021/10/19 00:06:28;;;;;;;1030.70;922.35;;;;;;;;;;5090044;28;20545;-77
2021/10/19 00:08:54;;;;;;;1037.20;928.25;;;;;;;;;;5087721;28;20086;-77
2021/10/19 00:11:20;;;;;;;1031.97;923.40;;;;;;;;;;5069128;28;20376;-76
2021/10/19 00:13:46;;;;;;;1047.90;938.45;;;;;;;;;;5066042;28;20052;-77
2021/10/19 00:16:12;;;;;;;1040.82;931.72;;;;;;;;;;5060204;28;20487;-77
2021/10/19 00:18:38;;;;;;;1032.60;923.85;;;;;;;;;;5051208;28;20055;-77
2021/10/19 00:21:04;;;;;;;1038.65;929.78;;;;;;;;;;5062822;28;20021;-77
2021/10/19 00:23:30;;;;;;;1032.78;923.95;;;;;;;;;;5062005;28;20034;-76
2021/10/19 00:25:56;;;;;;;1038.18;929.10;;;;;;;;;;5052230;28;20099;-76
2021/10/19 00:28:22;;;;;;;1035.95;926.78;;;;;;;;;;5046623;28;20258;-76
2021/10/19 00:30:49;;;;;;;1036.60;927.70;;;;;;;;;;5052299;28;20559;-77
2021/10/19 00:33:15;;;;;;;1039.15;930.30;;;;;;;;;;5048358;28;20021;-78
2021/10/19 00:35:41;;;;;;;1032.28;923.45;;;;;;;;;;5051469;28;20416;-76
2021/10/19 00:38:07;;;;;;;1030.95;922.42;;;;;;;;;;5050360;28;20457;-77
2021/10/19 00:40:35;;;;;;;1039.43;930.30;;;;;;;;;;5061369;28;20344;-77
2021/10/19 00:43:02;;;;;;;1037.10;928.38;;;;;;;;;;5051435;28;20351;-77
2021/10/19 00:45:28;;;;;;;1032.13;923.75;;;;;;;;;;5061971;28;20383;-77
2021/10/19 00:47:55;;;;;;;1032.40;923.58;;;;;;;;;;5049505;28;20103;-76
2021/10/19 00:50:21;;;;;;;1031.50;923.05;;;;;;;;;;5062021;28;20364;-76
2021/10/19 00:52:48;;;;;;;1043.40;934.22;;;;;;;;;;5047749;28;20025;-76
2021/10/19 00:55:14;;;;;;;1040.07;930.97;;;;;;;;;;5051390;28;20017;-77
2021/10/19 00:57:40;;;;;;;1033.15;923.92;;;;;;;;;;5047148;28;20400;-77
2021/10/19 01:00:07;;;;;;;1040.63;931.50;;;;;;;;;;5058935;28;20112;-77
2021/10/19 01:02:33;;;;;;;1035.90;927.17;;;;;;;;;;5049884;28;20043;-78
2021/10/19 01:04:59;;;;;;;1044.93;935.80;;;;;;;;;;5056415;28;20115;-76
2021/10/19 01:07:26;;;;;;;1038.88;929.78;;;;;;;;;;5049844;28;20029;-77
2021/10/19 01:09:52;;;;;;;1015.72;908.13;;;;;;;;;;5053791;28;20020;-78
2021/10/19 01:12:18;;;;;;;1027.13;918.80;;;;;;;;;;5053065;28;20025;-76
2021/10/19 01:14:44;;;;;;;1034.25;925.53;;;;;;;;;;5045969;28;20496;-77
2021/10/19 01:17:10;;;;;;;1038.07;928.97;;;;;;;;;;5032855;28;20045;-76
2021/10/19 01:19:37;;;;;;;1045.13;935.72;;;;;;;;;;5036763;28;20033;-76
2021/10/19 01:22:04;;;;;;;1045.40;935.92;;;;;;;;;;5034255;28;20159;-76
2021/10/19 01:24:30;;;;;;;1044.20;935.10;;;;;;;;;;5034396;28;20493;-77
2021/10/19 01:26:56;;;;;;;1039.05;930.17;;;;;;;;;;5043790;28;20029;-76
2021/10/19 01:29:22;;;;;;;1040.20;931.45;;;;;;;;;;5029303;28;20506;-76
2021/10/19 01:31:53;;;;;;;1038.50;929.90;;;;;;;;;;5038195;28;20124;-76
2021/10/19 01:34:19;;;;;;;1041.18;932.05;;;;;;;;;;5044422;28;20484;-77
2021/10/19 01:36:45;;;;;;;1051.47;941.85;;;;;;;;;;5046012;28;20033;-76
2021/10/19 01:39:12;;;;;;;1005.63;898.50;;;;;;;;;;5041415;28;20063;-76
2021/10/19 01:41:39;;;;;;;1047.38;938.15;;;;;;;;;;5042557;28;20029;-78
2021/10/19 01:44:05;;;;;;;1041.43;932.20;;;;;;;;;;5048026;28;20021;-77
2021/10/19 01:46:31;;;;;;;1038.82;930.22;;;;;;;;;;5045533;28;20033;-76
2021/10/19 01:48:57;;;;;;;1020.30;912.50;;;;;;;;;;5047720;28;20031;-76
2021/10/19 01:51:24;;;;;;;1056.53;946.75;;;;;;;;;;5045389;28;20103;-76
2021/10/19 01:53:50;;;;;;;1016.53;908.80;;;;;;;;;;5046608;28;20439;-77
2021/10/19 01:56:16;;;;;;;1005.83;899.20;;;;;;;;;;5042089;28;20029;-77
2021/10/19 01:58:42;;;;;;;1029.57;921.38;;;;;;;;;;5045703;28;20025;-76
2021/10/19 02:01:08;;;;;;;1033.18;924.78;;;;;;;;;;5045859;28;20031;-77
2021/10/19 02:03:34;;;;;;;1010.20;903.00;;;;;;;;;;5038303;28;20029;-77
2021/10/19 02:06:00;;;;;;;1030.40;921.78;;;;;;;;;;5044213;28;20637;-77
2021/10/19 02:08:26;;;;;;;1033.38;924.40;;;;;;;;;;5045426;28;20032;-77
2021/10/19 02:10:52;;;;;;;1029.75;921.42;;;;;;;;;;5041250;28;20037;-78
2021/10/19 02:13:18;;;;;;;1026.53;918.40;;;;;;;;;;5042449;28;20511;-76
2021/10/19 02:15:47;;;;;;;1032.70;923.95;;;;;;;;;;5048464;28;20473;-77
2021/10/19 02:18:13;;;;;;;1013.10;905.80;;;;;;;;;;5045236;28;20068;-77
2021/10/19 02:20:39;;;;;;;1029.82;921.72;;;;;;;;;;5043343;28;20105;-78
2021/10/19 02:23:06;;;;;;;1032.15;923.97;;;;;;;;;;5034546;28;20052;-78
2021/10/19 02:25:32;;;;;;;1034.82;926.45;;;;;;;;;;5057204;28;20025;-77
2021/10/19 02:27:58;;;;;;;1012.10;905.22;;;;;;;;;;5045428;28;20440;-77
2021/10/19 02:30:25;;;;;;;1041.80;932.97;;;;;;;;;;5044330;28;20052;-76
2021/10/19 02:32:51;;;;;;;1030.50;922.67;;;;;;;;;;5045890;28;20116;-77
2021/10/19 02:35:18;;;;;;;1035.53;927.45;;;;;;;;;;5046938;28;20029;-78
2021/10/19 02:37:45;;;;;;;1023.25;915.85;;;;;;;;;;5046127;28;20056;-77
2021/10/19 02:40:13;;;;;;;1045.10;936.10;;;;;;;;;;5042767;28;20112;-77
2021/10/19 02:42:39;;;;;;;1036.22;927.85;;;;;;;;;;5043678;28;20021;-77
2021/10/19 02:45:06;;;;;;;1051.90;942.35;;;;;;;;;;5041969;28;20017;-77
2021/10/19 02:47:32;;;;;;;1049.38;940.65;;;;;;;;;;5043348;28;20493;-77
2021/10/19 02:49:58;;;;;;;1034.78;926.13;;;;;;;;;;5047663;28;20056;-78
2021/10/19 02:52:24;;;;;;;1059.18;949.13;;;;;;;;;;5047777;28;20460;-78
2021/10/19 02:54:53;;;;;;;1058.80;948.63;;;;;;;;;;5049481;28;20655;-78
2021/10/19 02:57:20;;;;;;;1061.28;951.38;;;;;;;;;;5047508;28;20029;-77
2021/10/19 02:59:46;;;;;;;1036.60;928.63;;;;;;;;;;5026976;28;20033;-78
2021/10/19 03:02:12;;;;;;;1042.50;933.75;;;;;;;;;;5043090;28;20029;-77
2021/10/19 03:04:38;;;;;;;1040.38;931.72;;;;;;;;;;5038835;28;20437;-78
2021/10/19 03:07:04;;;;;;;1054.60;945.17;;;;;;;;;;5051496;28;20055;-77
2021/10/19 03:09:30;;;;;;;1054.22;944.78;;;;;;;;;;5046359;28;20381;-78
2021/10/19 03:11:56;;;;;;;1047.30;938.13;;;;;;;;;;5041502;28;20356;-77
2021/10/19 03:14:22;;;;;;;1056.55;947.10;;;;;;;;;;5056484;28;20054;-77
2021/10/19 03:16:48;;;;;;;1046.93;938.13;;;;;;;;;;5047016;28;20401;-79
2021/10/19 03:19:14;;;;;;;1056.70;947.13;;;;;;;;;;5044827;28;20017;-76
2021/10/19 03:21:41;;;;;;;1049.78;940.80;;;;;;;;;;5052007;28;20516;-78
2021/10/19 03:24:07;;;;;;;1050.47;941.42;;;;;;;;;;5057129;28;20029;-76
2021/10/19 03:26:33;;;;;;;1045.03;936.25;;;;;;;;;;5046027;28;20029;-77
2021/10/19 03:28:59;;;;;;;1049.90;940.65;;;;;;;;;;5044678;28;20055;-80
2021/10/19 03:31:25;;;;;;;1049.20;940.13;;;;;;;;;;5042422;28;20027;-78
2021/10/19 03:33:51;;;;;;;1051.03;941.95;;;;;;;;;;5043701;28;20484;-78
2021/10/19 03:36:17;;;;;;;1036.93;928.20;;;;;;;;;;5046974;28;20024;-77
2021/10/19 03:38:43;;;;;;;1049.65;940.63;;;;;;;;;;5052388;28;20492;-77
2021/10/19 03:41:09;;;;;;;1048.25;939.38;;;;;;;;;;5048370;28;20547;-77
2021/10/19 03:43:35;;;;;;;1049.15;939.95;;;;;;;;;;5051208;28;20029;-77
2021/10/19 03:46:01;;;;;;;1047.13;938.10;;;;;;;;;;5045249;28;20436;-78
2021/10/19 03:48:27;;;;;;;1047.15;937.92;;;;;;;;;;5043509;28;20021;-77
2021/10/19 03:50:53;;;;;;;1046.30;937.20;;;;;;;;;;5043926;28;20099;-77
2021/10/19 03:53:19;;;;;;;1049.60;940.45;;;;;;;;;;5053298;28;20083;-77
2021/10/19 03:55:47;;;;;;;1041.50;932.63;;;;;;;;;;5044489;28;20025;-77
2021/10/19 03:58:13;;;;;;;1042.63;933.65;;;;;;;;;;5048329;28;20087;-77
2021/10/19 04:00:39;;;;;;;1049.32;940.22;;;;;;;;;;5047841;28;20136;-76
2021/10/19 04:03:05;;;;;;;1047.97;939.20;;;;;;;;;;5056146;28;20393;-79
2021/10/19 04:05:31;;;;;;;1045.55;936.58;;;;;;;;;;5043821;28;20438;-78
2021/10/19 04:07:57;;;;;;;1046.32;937.42;;;;;;;;;;5049254;28;20021;-78
2021/10/19 04:10:23;;;;;;;1062.75;952.70;;;;;;;;;;5040835;28;20413;-77
2021/10/19 04:12:49;;;;;;;1044.88;936.05;;;;;;;;;;5062935;28;20045;-78
2021/10/19 04:15:15;;;;;;;1041.68;932.78;;;;;;;;;;5086025;28;20027;-77
2021/10/19 04:17:41;;;;;;;1046.07;936.80;;;;;;;;;;5083111;28;20395;-77
2021/10/19 04:20:08;;;;;;;1041.97;932.97;;;;;;;;;;5058641;28;20028;-78
2021/10/19 04:22:34;;;;;;;1046.75;937.60;;;;;;;;;;5081121;28;20030;-76
2021/10/19 04:25:00;;;;;;;1039.18;930.15;;;;;;;;;;5068105;28;20541;-77
2021/10/19 04:27:26;;;;;;;1044.88;935.83;;;;;;;;;;5085132;28;20020;-77
2021/10/19 04:29:52;;;;;;;1026.50;918.42;;;;;;;;;;5070586;28;20036;-78
2021/10/19 04:32:18;;;;;;;1039.82;931.40;;;;;;;;;;5088159;28;20085;-78
2021/10/19 04:34:44;;;;;;;1042.38;933.53;;;;;;;;;;5088315;28;20113;-77
2021/10/19 04:37:10;;;;;;;1022.17;914.55;;;;;;;;;;5070403;28;20561;-77
2021/10/19 04:39:36;;;;;;;1042.63;933.72;;;;;;;;;;5088300;28;20032;-76
2021/10/19 04:42:03;;;;;;;1047.85;938.58;;;;;;;;;;5086066;28;20043;-76
2021/10/19 04:44:29;;;;;;;1044.97;935.90;;;;;;;;;;5071014;28;20330;-78
2021/10/19 04:46:55;;;;;;;1046.15;937.00;;;;;;;;;;5088182;28;20059;-77
2021/10/19 04:49:21;;;;;;;1043.70;935.08;;;;;;;;;;5068009;28;20335;-77
2021/10/19 04:51:47;;;;;;;1020.40;913.15;;;;;;;;;;5069989;28;20430;-79
2021/10/19 04:54:13;;;;;;;1040.22;931.65;;;;;;;;;;5070135;28;20030;-78
2021/10/19 04:56:40;;;;;;;1049.22;939.95;;;;;;;;;;5065740;28;20108;-77
2021/10/19 04:59:06;;;;;;;1040.80;932.28;;;;;;;;;;5069539;28;20066;-78
2021/10/19 05:01:32;;;;;;;1040.88;931.75;;;;;;;;;;5060546;28;20448;-77
2021/10/19 05:03:57;;;;;;;1036.65;928.20;;;;;;;;;;5087446;28;20035;-77
2021/10/19 05:06:25;;;;;;;1062.45;952.70;;;;;;;;;;5080955;28;20036;-76
2021/10/19 05:08:51;;;;;;;1043.50;934.50;;;;;;;;;;5068246;28;20073;-77
2021/10/19 05:11:17;;;;;;;1043.80;935.22;;;;;;;;;;5085574;28;20649;-76
2021/10/19 05:13:43;;;;;;;1042.35;933.67;;;;;;;;;;5070373;28;20052;-78
2021/10/19 05:16:09;;;;;;;1037.60;929.45;;;;;;;;;;5081824;28;20036;-78
2021/10/19 05:18:35;;;;;;;1050.30;941.05;;;;;;;;;;5071029;28;20031;-77
2021/10/19 05:21:01;;;;;;;1048.63;939.50;;;;;;;;;;5087775;28;20028;-77
2021/10/19 05:23:27;;;;;;;1034.10;926.20;;;;;;;;;;5079334;28;20401;-78
2021/10/19 05:25:53;;;;;;;1038.07;930.05;;;;;;;;;;5068441;28;20027;-78
2021/10/19 05:28:19;;;;;;;1045.20;936.55;;;;;;;;;;5056462;28;20032;-78
2021/10/19 05:30:45;;;;;;;1033.20;925.60;;;;;;;;;;5085495;28;20048;-77
2021/10/19 05:33:11;;;;;;;1053.32;943.85;;;;;;;;;;5066108;28;20019;-78
2021/10/19 05:35:37;;;;;;;1062.30;952.90;;;;;;;;;;5087723;28;20544;-79
2021/10/19 05:38:03;;;;;;;1056.18;946.83;;;;;;;;;;5087420;28;20034;-80
2021/10/19 05:40:29;;;;;;;1027.07;919.60;;;;;;;;;;5067123;28;20024;-77
2021/10/19 05:42:55;;;;;;;1047.90;938.92;;;;;;;;;;5068530;28;20031;-79
2021/10/19 05:45:21;;;;;;;1030.63;923.17;;;;;;;;;;5070020;28;20234;-80
2021/10/19 05:47:47;;;;;;;1051.07;941.90;;;;;;;;;;5088065;28;20471;-79
2021/10/19 05:50:14;;;;;;;1060.88;951.25;;;;;;;;;;5069348;28;20019;-79
2021/10/19 05:52:41;;;;;;;1034.80;926.85;;;;;;;;;;5066104;28;20040;-78
2021/10/19 05:55:07;;;;;;;1059.05;949.60;;;;;;;;;;5068826;28;20043;-78
2021/10/19 05:57:33;;;;;;;1050.00;940.92;;;;;;;;;;5087742;28;20012;-77
2021/10/19 05:59:59;;;;;;;1056.72;947.72;;;;;;;;;;5068514;28;20420;-79
2021/10/19 06:02:25;;;;;;;1066.55;956.90;;;;;;;;;;5063422;28;20031;-78
2021/10/19 06:04:51;;;;;;;1053.78;944.85;;;;;;;;;;5074958;28;20024;-78
2021/10/19 06:07:17;;;;;;;1055.32;946.08;;;;;;;;;;5087448;28;20032;-76
2021/10/19 06:09:43;;;;;;;1051.40;942.58;;;;;;;;;;5086849;28;20028;-79
2021/10/19 06:12:09;;;;;;;1053.35;944.42;;;;;;;;;;5084572;28;20403;-78
2021/10/19 06:14:35;;;;;;;1055.45;946.35;;;;;;;;;;5086259;28;20036;-79
2021/10/19 06:17:01;;;;;;;1055.47;946.33;;;;;;;;;;5069067;28;20027;-78
2021/10/19 06:19:27;;;;;;;1057.05;947.55;;;;;;;;;;5065835;28;20103;-77
2021/10/19 06:21:53;;;;;;;1030.00;922.42;;;;;;;;;;5086621;28;20452;-78
2021/10/19 06:24:19;;;;;;;1053.22;944.08;;;;;;;;;;5086320;28;20055;-79
2021/10/19 06:26:45;;;;;;;1062.50;952.90;;;;;;;;;;5086786;28;20030;-78
2021/10/19 06:29:11;;;;;;;1052.35;943.72;;;;;;;;;;5086529;28;20067;-79
2021/10/19 06:31:37;;;;;;;1033.80;926.17;;;;;;;;;;5086437;28;20077;-78
2021/10/19 06:34:04;;;;;;;1056.47;947.55;;;;;;;;;;5064341;28;20032;-78
2021/10/19 06:36:30;;;;;;;1054.80;946.00;;;;;;;;;;5053003;28;20058;-79
2021/10/19 06:38:56;;;;;;;1053.82;945.15;;;;;;;;;;5071899;28;20028;-79
2021/10/19 06:41:22;;;;;;;1058.70;949.58;;;;;;;;;;5065432;28;20092;-78
2021/10/19 06:43:48;;;;;;;1050.03;941.65;;;;;;;;;;5068071;28;20468;-79
2021/10/19 06:46:14;;;;;;;1070.32;960.63;;;;;;;;;;5086859;28;20269;-77
2021/10/19 06:48:40;;;;;;;1061.20;951.83;;;;;;;;;;5086510;28;20031;-78
2021/10/19 06:51:06;;;;;;;1066.45;956.47;;;;;;;;;;5085368;28;20035;-79
2021/10/19 06:53:33;;;;;;;1060.78;952.05;;;;;;;;;;5067877;28;20036;-78
2021/10/19 06:55:59;;;;;;;1049.65;941.28;;;;;;;;;;5064450;28;20516;-79
2021/10/19 06:58:25;;;;;;;1030.93;923.95;;;;;;;;;;5068285;28;20434;-77
2021/10/19 07:00:54;;;;;;;1045.78;937.58;;;;;;;;;;5069015;28;20031;-79
2021/10/19 07:03:21;;;;;;;1068.45;958.55;;;;;;;;;;5064875;28;20063;-78
2021/10/19 07:05:47;;;;;;;1067.20;957.55;;;;;;;;;;5083605;28;20149;-79
2021/10/19 07:08:13;;;;;;;1066.63;956.88;;;;;;;;;;5085715;28;20016;-78
2021/10/19 07:10:40;;;;;;;1069.53;960.25;;;;;;;;;;5077897;28;20451;-77
2021/10/19 07:13:06;;;;;;;1076.45;966.33;;;;;;;;;;5066661;28;20050;-78
2021/10/19 07:15:35;;;;;;;1031.63;924.67;;;;;;;;;;5083046;28;20024;-79
2021/10/19 07:18:05;;;;;;;1058.70;950.08;;;;;;;;;;5052231;28;20115;-78
2021/10/19 07:20:31;;;;;;;1048.53;940.58;;;;;;;;;;5050252;28;20442;-78
2021/10/19 07:22:59;;;;;;;1057.50;948.95;;;;;;;;;;5067388;28;20023;-78
2021/10/19 07:25:25;;;;;;;1061.97;953.28;;;;;;;;;;5065412;28;20059;-78
2021/10/19 07:27:51;;;;;;;1045.80;938.15;;;;;;;;;;5085112;28;20429;-78
2021/10/19 07:30:17;;;;;;;1058.60;949.92;;;;;;;;;;5083161;28;20614;-79
2021/10/19 07:32:44;;;;;;;1059.60;950.90;;;;;;;;;;5066995;28;20020;-77
2021/10/19 07:35:10;;;;;;;1062.03;953.40;;;;;;;;;;5057018;28;20024;-77
2021/10/19 07:37:37;;;;;;;1066.97;958.33;;;;;;;;;;5067457;28;20099;-77
2021/10/19 07:40:04;;;;;;;1004.97;899.40;;;;;;;;;;5058919;28;20395;-80
2021/10/19 07:42:33;;;;;;;1021.40;915.05;;;;;;;;;;5083632;28;20491;-78
2021/10/19 07:44:59;;;;;;;1046.97;939.13;;;;;;;;;;5068623;28;20103;-78
2021/10/19 07:47:24;;;;;;;1038.00;931.00;;;;;;;;;;5076654;28;20067;-77
2021/10/19 07:49:50;;;;;;;1031.38;924.70;;;;;;;;;;5057790;28;20047;-77
2021/10/19 07:52:16;;;;;;;1047.88;940.65;;;;;;;;;;5081710;28;20058;-78
2021/10/19 07:54:42;;;;;;;1055.43;947.10;;;;;;;;;;5062090;28;20127;-77
2021/10/19 07:57:08;;;;;;;1045.63;938.13;;;;;;;;;;5055522;28;20036;-77
2021/10/19 07:59:34;;;;;;;1018.55;912.67;;;;;;;;;;5056551;28;20016;-79
2021/10/19 08:02:00;;;;;;;1004.50;899.20;;;;;;;;;;5067029;28;20028;-78
2021/10/19 08:04:26;;;;;;;1042.05;934.88;;;;;;;;;;5087633;28;20426;-79
2021/10/19 08:06:52;;;;;;;1017.33;911.92;;;;;;;;;;5077046;28;20134;-78
2021/10/19 08:09:18;;;;;;;1012.80;907.13;;;;;;;;;;5069063;28;20470;-78
2021/10/19 08:11:44;;;;;;;1054.75;946.30;;;;;;;;;;5065604;28;20046;-78
2021/10/19 08:14:10;;;;;;;1050.15;942.42;;;;;;;;;;5088523;28;20079;-78
2021/10/19 08:16:36;;;;;;;1064.32;956.17;;;;;;;;;;5086012;28;20229;-79
2021/10/19 08:19:02;;;;;;;1057.65;949.65;;;;;;;;;;5087062;28;20136;-78
2021/10/19 08:21:30;;;;;;;1002.50;897.53;;;;;;;;;;5079206;28;20020;-77
2021/10/19 08:23:56;;;;;;;1048.43;941.58;;;;;;;;;;5061319;28;20051;-79
2021/10/19 08:26:24;;;;;;;1066.57;958.05;;;;;;;;;;5058061;28;20065;-78
2021/10/19 08:28:53;;;;;;;1056.88;948.92;;;;;;;;;;5087154;28;20020;-77
2021/10/19 08:31:21;;;;;;;1082.53;972.60;;;;;;;;;;5064668;28;20028;-79
2021/10/19 08:33:49;;;;;;;1071.40;962.20;;;;;;;;;;5064789;28;20054;-78
2021/10/19 08:36:15;;;;;;;1074.32;965.15;;;;;;;;;;5086515;28;20016;-78
2021/10/19 08:38:43;;;;;;;1057.97;950.28;;;;;;;;;;5085288;28;20039;-78
2021/10/19 08:41:10;;;;;;;1074.47;965.35;;;;;;;;;;5059679;28;20055;-78
2021/10/19 08:43:38;;;;;;;1078.30;969.10;;;;;;;;;;5085991;28;20392;-78
2021/10/19 08:46:04;;;;;;;1079.63;970.30;;;;;;;;;;5085061;28;20423;-78
2021/10/19 08:48:30;;;;;;;1079.25;970.47;;;;;;;;;;5068996;28;20384;-76
2021/10/19 08:50:58;;;;;;;1073.72;964.95;;;;;;;;;;5064067;28;20036;-78
2021/10/19 08:53:24;;;;;;;1091.03;981.33;;;;;;;;;;5064678;28;20115;-78
2021/10/19 08:55:50;;;;;;;1049.53;943.00;;;;;;;;;;5084994;28;20103;-77
2021/10/19 08:58:16;;;;;;;1060.32;953.00;;;;;;;;;;5085686;28;20021;-78
2021/10/19 09:00:43;;;;;;;1063.35;956.03;;;;;;;;;;5056380;28;20107;-77
2021/10/19 09:03:09;;;;;;;1082.32;973.35;;;;;;;;;;5064044;28;20020;-78
2021/10/19 09:05:35;;;;;;;1079.25;970.60;;;;;;;;;;5067821;28;20028;-78
2021/10/19 09:08:03;;;;;;;1045.50;939.67;;;;;;;;;;5064178;28;20031;-78
2021/10/19 09:10:36;;;;;;;1041.78;935.63;;;;;;;;;;5086748;28;20027;-78
2021/10/19 09:13:04;;;;;;;1079.78;971.50;;;;;;;;;;5084620;28;20049;-78
2021/10/19 09:15:31;;;;;;;1072.13;964.20;;;;;;;;;;5066983;28;20032;-78
2021/10/19 09:18:02;;;;;;;1067.70;960.28;;;;;;;;;;5064203;28;20078;-80
2021/10/19 09:20:28;;;;;;;1030.90;925.47;;;;;;;;;;5064349;28;20024;-78
2021/10/19 09:22:58;;;;;;;1076.35;968.55;;;;;;;;;;5068000;28;20032;-79
2021/10/19 09:25:44;;;;;;;1072.03;964.35;;;;;;;;;;5073227;28;20020;-76
2021/10/19 09:28:12;;;;;;;1061.70;954.35;;;;;;;;;;5083814;28;20082;-77
2021/10/19 09:30:41;;;;;;;1075.18;967.50;;;;;;;;;;5081457;28;20028;-78
2021/10/19 09:33:08;;;;;;;1065.60;958.65;;;;;;;;;;5087700;28;20035;-79
2021/10/19 09:35:35;;;;;;;1104.13;994.50;;;;;;;;;;5068897;28;20077;-79
2021/10/19 09:38:03;;;;;;;1094.40;985.55;;;;;;;;;;5068236;28;20035;-78
2021/10/19 09:40:37;;;;;;;1006.67;903.03;;;;;;;;;;5065815;28;20031;-78
2021/10/19 09:43:04;;;;;;;1044.88;939.28;;;;;;;;;;5086089;28;20028;-78
2021/10/19 09:45:31;;;;;;;1066.88;959.63;;;;;;;;;;5088232;28;20403;-78
2021/10/19 09:47:57;;;;;;;1069.35;962.38;;;;;;;;;;5065123;28;20495;-78
2021/10/19 09:50:24;;;;;;;1035.57;930.38;;;;;;;;;;5063904;28;20396;-77
2021/10/19 09:52:51;;;;;;;1073.07;965.85;;;;;;;;;;5079922;28;20040;-78
2021/10/19 09:55:17;;;;;;;1075.50;968.15;;;;;;;;;;5085389;28;20038;-78
2021/10/19 09:57:44;;;;;;;1076.35;969.17;;;;;;;;;;5087601;28;20040;-79
2021/10/19 10:00:11;;;;;;;1048.55;943.13;;;;;;;;;;5075750;28;20411;-77
2021/10/19 10:02:38;;;;;;;1090.13;981.75;;;;;;;;;;5081313;28;20089;-79
2021/10/19 10:05:05;;;;;;;1079.07;971.72;;;;;;;;;;5060968;28;20026;-78
2021/10/19 10:07:31;;;;;;;1070.03;963.15;;;;;;;;;;5060506;28;20054;-79
2021/10/19 10:09:58;;;;;;;1069.15;962.65;;;;;;;;;;5077477;28;20032;-79
2021/10/19 10:12:28;;;;;;;1082.32;974.92;;;;;;;;;;5059313;28;20036;-76
2021/10/19 10:14:54;;;;;;;1087.82;980.25;;;;;;;;;;5069673;28;20070;-79
2021/10/19 10:17:20;;;;;;;1111.38;998.15;;;;;;;;;;5082433;28;20032;-77
2021/10/19 10:19:46;;;;;;;1099.82;991.50;;;;;;;;;;5083775;28;20039;-78
2021/10/19 10:22:17;;;;;;;1126.47;999.90;;;;;;;;;;5063967;28;20138;-77
2021/10/19 10:24:44;;;;;;;1106.75;995.83;;;;;;;;;;5084766;28;20104;-78
2021/10/19 10:27:15;;;;;;;1128.30;999.90;;;;;;;;;;5064542;28;20028;-78
2021/10/19 10:29:45;;;;;;;1089.60;981.45;;;;;;;;;;5066079;28;20475;-77
2021/10/19 10:32:21;;;;;;;1082.65;974.95;;;;;;;;;;5089694;28;20032;-77
2021/10/19 10:34:47;;;;;;;1075.22;968.13;;;;;;;;;;5060574;28;20506;-78
2021/10/19 10:37:13;;;;;;;1097.40;989.28;;;;;;;;;;5058463;28;20031;-76
2021/10/19 10:39:45;;;;;;;1105.63;996.20;;;;;;;;;;5086424;28;20688;-75
2021/10/19 10:42:12;;;;;;;1099.53;990.97;;;;;;;;;;5081801;28;21680;-74
2021/10/19 10:44:40;;;;;;;1093.95;986.22;;;;;;;;;;5079923;28;20146;-75
2021/10/19 10:47:06;;;;;;;1131.20;999.90;;;;;;;;;;5059692;28;20944;-75
2021/10/19 10:49:32;;;;;;;1136.25;999.90;;;;;;;;;;5065788;28;20310;-75
2021/10/19 10:52:00;;;;;;;1129.07;999.90;;;;;;;;;;5083994;28;20107;-76
2021/10/19 10:54:26;;;;;;;1124.18;999.90;;;;;;;;;;5081943;28;20017;-76
2021/10/19 10:56:53;;;;;;;1141.72;999.90;;;;;;;;;;5082605;28;20028;-76
2021/10/19 10:59:29;;;;;;;1103.90;994.67;;;;;;;;;;5083242;28;20542;-74
2021/10/19 11:01:56;;;;;;;1133.50;999.90;;;;;;;;;;5080633;28;20043;-75
2021/10/19 11:04:22;;;;;;;1112.93;998.63;;;;;;;;;;5064223;28;20016;-76
2021/10/19 11:06:48;;;;;;;1132.30;999.90;;;;;;;;;;5068342;28;20576;-76
2021/10/19 11:09:15;;;;;;;1143.68;999.90;;;;;;;;;;5062600;28;20668;-74
2021/10/19 11:11:45;;;;;;;1120.97;999.90;;;;;;;;;;5080244;28;20051;-75
2021/10/19 11:14:20;;;;;;;1115.18;998.58;;;;;;;;;;5064757;28;20292;-75
2021/10/19 11:16:51;;;;;;;1137.25;999.90;;;;;;;;;;5065315;28;20040;-76
2021/10/19 11:19:24;;;;;;;1118.75;999.70;;;;;;;;;;5063054;28;20077;-74
2021/10/19 11:22:01;;;;;;;1139.07;999.90;;;;;;;;;;5064856;28;20474;-76
2021/10/19 11:24:28;;;;;;;1137.75;999.90;;;;;;;;;;5077183;28;20032;-75
2021/10/19 11:26:55;;;;;;;1127.63;999.90;;;;;;;;;;5058291;28;20488;-75
2021/10/19 11:29:22;;;;;;;1144.38;999.90;;;;;;;;;;5080369;28;20233;-74
2021/10/19 11:31:48;;;;;;;1149.10;999.90;;;;;;;;;;5060948;28;20135;-76
2021/10/19 11:34:14;;;;;;;1147.07;999.90;;;;;;;;;;5083386;28;20035;-76
2021/10/19 11:36:40;;;;;;;1155.90;999.90;;;;;;;;;;5064316;28;20549;-76
2021/10/19 11:39:13;;;;;;;1149.78;999.90;;;;;;;;;;5068493;28;20027;-75
2021/10/19 11:41:40;;;;;;;1141.82;999.90;;;;;;;;;;5086111;28;20012;-77
2021/10/19 11:44:06;;;;;;;1140.22;999.90;;;;;;;;;;5087192;28;20102;-74
2021/10/19 11:46:35;;;;;;;1149.57;999.90;;;;;;;;;;5070682;28;20028;-75
2021/10/19 11:49:21;;;;;;;1142.88;999.90;;;;;;;;;;5061998;28;20027;-76
2021/10/19 11:51:52;;;;;;;1148.38;999.90;;;;;;;;;;5086479;28;20075;-75
2021/10/19 11:54:19;;;;;;;1130.13;999.90;;;;;;;;;;5088094;28;20498;-76
2021/10/19 11:57:03;;;;;;;1154.32;999.90;;;;;;;;;;5087229;28;20344;-75
2021/10/19 11:59:39;;;;;;;1149.72;999.90;;;;;;;;;;5085825;28;20036;-75
2021/10/19 12:02:07;;;;;;;1162.32;999.90;;;;;;;;;;5085672;28;20035;-77
2021/10/19 12:04:38;;;;;;;1162.03;999.90;;;;;;;;;;5069359;28;20472;-76
2021/10/19 12:07:04;;;;;;;1158.40;999.90;;;;;;;;;;5071010;28;20206;-77
2021/10/19 12:09:30;;;;;;;1164.15;999.90;;;;;;;;;;5061693;28;20149;-76
2021/10/19 12:11:57;;;;;;;1155.55;999.90;;;;;;;;;;5083345;28;20081;-75
2021/10/19 12:14:29;;;;;;;1158.18;999.90;;;;;;;;;;5069799;28;20458;-77
2021/10/19 12:16:56;;;;;;;1155.63;999.90;;;;;;;;;;5057766;28;20036;-76
2021/10/19 12:19:22;;;;;;;1138.47;999.90;;;;;;;;;;5062743;28;20016;-77
2021/10/19 12:21:52;;;;;;;1163.78;999.90;;;;;;;;;;5087713;28;20130;-77
2021/10/19 12:24:18;;;;;;;;;;;;;;;;;;5087809;28;20111;-74
2021/10/19 12:26:44;;;;;;;1137.30;999.90;;;;;;;;;;5070391;28;20011;-72
2021/10/19 12:29:12;;;;;;;1140.35;999.90;;;;;;;;;;5069953;28;20412;-74
2021/10/19 12:31:38;;;;;;;1160.78;999.90;;;;;;;;;;5068883;28;20024;-73
2021/10/19 12:34:06;;;;;;;1169.22;999.90;;;;;;;;;;5089173;28;20117;-74
2021/10/19 12:36:37;;;;;;;1167.28;999.90;;;;;;;;;;5089729;28;20383;-77
2021/10/19 12:39:07;;;;;;;1158.55;999.90;;;;;;;;;;5088570;28;20031;-76
2021/10/19 12:41:34;;;;;;;1159.25;999.90;;;;;;;;;;5087895;28;20012;-76
2021/10/19 12:44:01;;;;;;;1165.75;999.90;;;;;;;;;;5088442;28;20056;-76
2021/10/19 12:46:27;;;;;;;1158.65;999.90;;;;;;;;;;5090718;28;20024;-76
2021/10/19 12:49:02;;;;;;;1170.75;999.90;;;;;;;;;;5088537;28;20454;-78
2021/10/19 12:51:29;;;;;;;1137.13;999.90;;;;;;;;;;5090379;28;20458;-75
2021/10/19 12:53:55;;;;;;;1165.07;999.90;;;;;;;;;;5090976;28;20028;-76
2021/10/19 12:56:22;;;;;;;1164.82;999.90;;;;;;;;;;5071779;28;20024;-76
2021/10/19 12:58:49;;;;;;;1165.38;999.90;;;;;;;;;;5071543;28;20023;-75
2021/10/19 13:01:16;;;;;;;1165.72;999.90;;;;;;;;;;5071414;28;20027;-74
2021/10/19 13:03:42;;;;;;;1172.30;999.90;;;;;;;;;;5071061;28;20103;-75
2021/10/19 13:06:08;;;;;;;1171.00;999.90;;;;;;;;;;5089824;28;20558;-76
2021/10/19 13:08:36;;;;;;;1182.20;999.90;;;;;;;;;;5090487;28;20099;-76
2021/10/19 13:11:05;;;;;;;1181.05;999.90;;;;;;;;;;5070665;28;20021;-76
2021/10/19 13:13:32;;;;;;;1183.70;999.90;;;;;;;;;;5072029;28;20395;-75
2021/10/19 13:15:58;;;;;;;1176.70;999.90;;;;;;;;;;5071204;28;20031;-76
2021/10/19 13:18:24;;;;;;;1178.25;999.90;;;;;;;;;;5089503;28;20517;-75
2021/10/19 13:20:50;;;;;;;1186.50;999.90;;;;;;;;;;5070973;28;20181;-76
2021/10/19 13:23:16;;;;;;;1172.40;999.90;;;;;;;;;;5070912;28;20012;-75
2021/10/19 13:25:42;;;;;;;1173.95;999.90;;;;;;;;;;5089840;28;20023;-75
2021/10/19 13:28:10;;;;;;;1162.45;999.90;;;;;;;;;;5071839;28;20482;-77
2021/10/19 13:30:36;;;;;;;1178.25;999.90;;;;;;;;;;5070890;28;20035;-77
2021/10/19 13:33:02;;;;;;;1184.22;999.90;;;;;;;;;;5071372;28;20032;-74
2021/10/19 13:35:28;;;;;;;1182.90;999.90;;;;;;;;;;5070953;28;20035;-76
2021/10/19 13:37:54;;;;;;;1186.07;999.90;;;;;;;;;;5070960;28;20384;-76
2021/10/19 13:40:20;;;;;;;1176.35;999.90;;;;;;;;;;5070564;28;20028;-75